sensor_id;sensor_type;location;lat;lon;timestamp;temperature;humidity
74511;DHT22;62991;50.040;18.400;2022-09-29T00:00:23;14.40;64.30
74511;DHT22;62991;50.040;18.400;2022-09-29T00:03:24;14.40;64.20
74511;DHT22;62991;50.040;18.400;2022-09-29T00:06:25;14.40;64.30
74511;DHT22;62991;50.040;18.400;2022-09-29T00:09:26;14.40;64.30
74511;DHT22;62991;50.040;18.400;2022-09-29T00:12:27;14.40;64.30
74511;DHT22;62991;50.040;18.400;2022-09-29T00:15:28;14.40;64.30
74511;DHT22;62991;50.040;18.400;2022-09-29T00:18:30;14.40;64.30
74511;DHT22;62991;50.040;18.400;2022-09-29T00:21:31;14.40;64.30
74511;DHT22;62991;50.040;18.400;2022-09-29T00:24:32;14.40;64.30
74511;DHT22;62991;50.040;18.400;2022-09-29T00:27:34;14.40;64.30
74511;DHT22;62991;50.040;18.400;2022-09-29T00:30:35;14.30;64.30
74511;DHT22;62991;50.040;18.400;2022-09-29T00:33:37;14.30;64.40
74511;DHT22;62991;50.040;18.400;2022-09-29T00:36:38;14.30;64.40
74511;DHT22;62991;50.040;18.400;2022-09-29T00:39:40;14.20;64.40
74511;DHT22;62991;50.040;18.400;2022-09-29T00:42:41;14.20;64.50
74511;DHT22;62991;50.040;18.400;2022-09-29T00:45:42;14.20;64.50
74511;DHT22;62991;50.040;18.400;2022-09-29T00:48:42;14.20;64.60
74511;DHT22;62991;50.040;18.400;2022-09-29T00:55:14;14.20;64.60
74511;DHT22;62991;50.040;18.400;2022-09-29T00:58:34;14.20;64.70
74511;DHT22;62991;50.040;18.400;2022-09-29T01:01:36;14.20;64.60
74511;DHT22;62991;50.040;18.400;2022-09-29T01:04:37;14.20;64.60
74511;DHT22;62991;50.040;18.400;2022-09-29T01:07:39;14.20;64.60
74511;DHT22;62991;50.040;18.400;2022-09-29T01:10:40;14.20;64.60
74511;DHT22;62991;50.040;18.400;2022-09-29T01:13:44;14.10;64.60
74511;DHT22;62991;50.040;18.400;2022-09-29T01:16:45;14.10;64.60
74511;DHT22;62991;50.040;18.400;2022-09-29T01:23:23;14.10;64.60
74511;DHT22;62991;50.040;18.400;2022-09-29T01:36:22;14.10;64.50
74511;DHT22;62991;50.040;18.400;2022-09-29T01:40:15;14.10;64.60
74511;DHT22;62991;50.040;18.400;2022-09-29T01:43:04;14.10;64.50
74511;DHT22;62991;50.040;18.400;2022-09-29T01:46:29;14.10;64.60
74511;DHT22;62991;50.040;18.400;2022-09-29T01:49:34;14.10;64.60
74511;DHT22;62991;50.040;18.400;2022-09-29T01:52:47;14.00;64.60
74511;DHT22;62991;50.040;18.400;2022-09-29T01:55:52;13.90;64.70
74511;DHT22;62991;50.040;18.400;2022-09-29T01:58:57;13.90;64.80
74511;DHT22;62991;50.040;18.400;2022-09-29T02:02:10;13.90;64.80
74511;DHT22;62991;50.040;18.400;2022-09-29T02:05:19;13.90;64.80
74511;DHT22;62991;50.040;18.400;2022-09-29T02:08:24;13.80;64.90
74511;DHT22;62991;50.040;18.400;2022-09-29T02:11:27;13.80;64.80
74511;DHT22;62991;50.040;18.400;2022-09-29T02:14:33;13.80;64.80
74511;DHT22;62991;50.040;18.400;2022-09-29T02:17:39;13.80;64.80
74511;DHT22;62991;50.040;18.400;2022-09-29T02:20:40;13.80;64.90
74511;DHT22;62991;50.040;18.400;2022-09-29T02:23:41;13.80;64.90
74511;DHT22;62991;50.040;18.400;2022-09-29T02:26:42;13.80;64.80
74511;DHT22;62991;50.040;18.400;2022-09-29T02:29:44;13.80;64.80
74511;DHT22;62991;50.040;18.400;2022-09-29T02:32:46;13.80;64.80
74511;DHT22;62991;50.040;18.400;2022-09-29T02:36:03;13.90;64.80
74511;DHT22;62991;50.040;18.400;2022-09-29T02:52:25;13.90;64.70
74511;DHT22;62991;50.040;18.400;2022-09-29T02:58:48;13.90;64.60
74511;DHT22;62991;50.040;18.400;2022-09-29T03:01:53;13.90;64.60
74511;DHT22;62991;50.040;18.400;2022-09-29T03:04:54;13.90;64.60
74511;DHT22;62991;50.040;18.400;2022-09-29T03:07:54;13.90;64.70
74511;DHT22;62991;50.040;18.400;2022-09-29T03:10:55;13.90;64.60
74511;DHT22;62991;50.040;18.400;2022-09-29T03:13:56;13.90;64.60
74511;DHT22;62991;50.040;18.400;2022-09-29T03:16:57;13.90;64.60
74511;DHT22;62991;50.040;18.400;2022-09-29T03:19:58;13.90;64.60
74511;DHT22;62991;50.040;18.400;2022-09-29T03:22:58;13.90;64.60
74511;DHT22;62991;50.040;18.400;2022-09-29T03:25:59;13.90;64.60
74511;DHT22;62991;50.040;18.400;2022-09-29T03:29:00;13.90;64.60
74511;DHT22;62991;50.040;18.400;2022-09-29T03:32:01;13.90;64.50
74511;DHT22;62991;50.040;18.400;2022-09-29T03:35:02;13.90;64.60
74511;DHT22;62991;50.040;18.400;2022-09-29T03:38:03;13.90;64.60
74511;DHT22;62991;50.040;18.400;2022-09-29T03:41:05;13.90;64.60
74511;DHT22;62991;50.040;18.400;2022-09-29T03:44:05;13.90;64.60
74511;DHT22;62991;50.040;18.400;2022-09-29T03:47:07;13.90;64.60
74511;DHT22;62991;50.040;18.400;2022-09-29T03:50:08;13.90;64.60
74511;DHT22;62991;50.040;18.400;2022-09-29T03:53:09;13.90;64.60
74511;DHT22;62991;50.040;18.400;2022-09-29T03:56:10;13.90;64.50
74511;DHT22;62991;50.040;18.400;2022-09-29T03:59:10;13.90;64.50
74511;DHT22;62991;50.040;18.400;2022-09-29T04:02:12;13.90;64.50
74511;DHT22;62991;50.040;18.400;2022-09-29T04:05:13;13.90;64.50
74511;DHT22;62991;50.040;18.400;2022-09-29T04:08:15;13.90;64.60
74511;DHT22;62991;50.040;18.400;2022-09-29T04:11:15;13.80;64.50
74511;DHT22;62991;50.040;18.400;2022-09-29T04:14:16;13.80;64.60
74511;DHT22;62991;50.040;18.400;2022-09-29T04:17:17;13.80;64.60
74511;DHT22;62991;50.040;18.400;2022-09-29T04:20:18;13.90;64.60
74511;DHT22;62991;50.040;18.400;2022-09-29T04:23:18;13.80;64.50
74511;DHT22;62991;50.040;18.400;2022-09-29T04:26:19;13.90;64.50
74511;DHT22;62991;50.040;18.400;2022-09-29T04:29:20;13.80;64.50
74511;DHT22;62991;50.040;18.400;2022-09-29T04:32:21;13.80;64.50
74511;DHT22;62991;50.040;18.400;2022-09-29T04:35:22;13.80;64.50
74511;DHT22;62991;50.040;18.400;2022-09-29T04:38:23;13.80;64.50
74511;DHT22;62991;50.040;18.400;2022-09-29T04:41:24;13.90;64.50
74511;DHT22;62991;50.040;18.400;2022-09-29T04:44:24;13.80;64.50
74511;DHT22;62991;50.040;18.400;2022-09-29T04:47:25;13.90;64.50
74511;DHT22;62991;50.040;18.400;2022-09-29T04:50:26;13.90;64.40
74511;DHT22;62991;50.040;18.400;2022-09-29T04:53:27;13.90;64.40
74511;DHT22;62991;50.040;18.400;2022-09-29T04:56:28;13.90;64.40
74511;DHT22;62991;50.040;18.400;2022-09-29T04:59:30;13.90;64.40
74511;DHT22;62991;50.040;18.400;2022-09-29T05:02:32;13.90;64.40
74511;DHT22;62991;50.040;18.400;2022-09-29T05:05:33;13.90;64.40
74511;DHT22;62991;50.040;18.400;2022-09-29T05:08:34;13.90;64.40
74511;DHT22;62991;50.040;18.400;2022-09-29T05:11:35;13.90;64.40
74511;DHT22;62991;50.040;18.400;2022-09-29T05:14:35;13.90;64.40
74511;DHT22;62991;50.040;18.400;2022-09-29T05:17:36;13.90;64.40
74511;DHT22;62991;50.040;18.400;2022-09-29T05:20:37;13.90;64.40
74511;DHT22;62991;50.040;18.400;2022-09-29T05:23:37;13.90;64.40
74511;DHT22;62991;50.040;18.400;2022-09-29T05:26:38;13.90;64.30
74511;DHT22;62991;50.040;18.400;2022-09-29T05:29:39;13.90;64.40
74511;DHT22;62991;50.040;18.400;2022-09-29T05:32:42;13.90;64.40
74511;DHT22;62991;50.040;18.400;2022-09-29T05:35:43;13.90;64.40
74511;DHT22;62991;50.040;18.400;2022-09-29T05:38:43;13.90;64.30
74511;DHT22;62991;50.040;18.400;2022-09-29T05:41:44;13.90;64.40
74511;DHT22;62991;50.040;18.400;2022-09-29T05:44:45;14.00;64.40
74511;DHT22;62991;50.040;18.400;2022-09-29T05:47:46;14.00;64.30
74511;DHT22;62991;50.040;18.400;2022-09-29T05:50:47;14.00;64.40
74511;DHT22;62991;50.040;18.400;2022-09-29T05:53:47;14.00;64.40
74511;DHT22;62991;50.040;18.400;2022-09-29T05:56:48;14.00;64.30
74511;DHT22;62991;50.040;18.400;2022-09-29T05:59:49;14.00;64.30
74511;DHT22;62991;50.040;18.400;2022-09-29T06:02:50;14.00;64.40
74511;DHT22;62991;50.040;18.400;2022-09-29T06:05:50;14.00;64.40
74511;DHT22;62991;50.040;18.400;2022-09-29T06:08:52;14.10;64.40
74511;DHT22;62991;50.040;18.400;2022-09-29T06:11:53;14.10;64.30
74511;DHT22;62991;50.040;18.400;2022-09-29T06:14:53;14.10;64.20
74511;DHT22;62991;50.040;18.400;2022-09-29T06:17:58;14.10;64.20
74511;DHT22;62991;50.040;18.400;2022-09-29T06:21:02;14.20;64.20
74511;DHT22;62991;50.040;18.400;2022-09-29T06:24:03;14.20;64.20
74511;DHT22;62991;50.040;18.400;2022-09-29T06:27:03;14.20;64.20
74511;DHT22;62991;50.040;18.400;2022-09-29T06:30:05;14.20;64.20
74511;DHT22;62991;50.040;18.400;2022-09-29T06:33:06;14.20;64.20
74511;DHT22;62991;50.040;18.400;2022-09-29T06:36:27;14.30;64.20
74511;DHT22;62991;50.040;18.400;2022-09-29T06:39:47;14.30;64.20
74511;DHT22;62991;50.040;18.400;2022-09-29T06:42:48;14.40;64.10
74511;DHT22;62991;50.040;18.400;2022-09-29T06:45:49;14.40;64.10
74511;DHT22;62991;50.040;18.400;2022-09-29T06:48:50;14.40;64.10
74511;DHT22;62991;50.040;18.400;2022-09-29T06:51:51;14.40;64.10
74511;DHT22;62991;50.040;18.400;2022-09-29T06:54:51;14.40;64.10
74511;DHT22;62991;50.040;18.400;2022-09-29T06:57:53;14.40;64.10
74511;DHT22;62991;50.040;18.400;2022-09-29T07:00:54;14.50;64.10
74511;DHT22;62991;50.040;18.400;2022-09-29T07:03:55;14.50;64.10
74511;DHT22;62991;50.040;18.400;2022-09-29T07:06:56;14.50;64.10
74511;DHT22;62991;50.040;18.400;2022-09-29T07:09:57;14.50;64.00
74511;DHT22;62991;50.040;18.400;2022-09-29T07:12:57;14.50;64.00
74511;DHT22;62991;50.040;18.400;2022-09-29T07:16:10;14.50;64.00
74511;DHT22;62991;50.040;18.400;2022-09-29T07:19:11;14.50;64.00
74511;DHT22;62991;50.040;18.400;2022-09-29T07:22:14;14.60;64.00
74511;DHT22;62991;50.040;18.400;2022-09-29T07:25:15;14.60;63.90
74511;DHT22;62991;50.040;18.400;2022-09-29T07:28:16;14.60;63.90
74511;DHT22;62991;50.040;18.400;2022-09-29T07:31:19;14.70;63.90
74511;DHT22;62991;50.040;18.400;2022-09-29T07:34:20;14.70;63.80
74511;DHT22;62991;50.040;18.400;2022-09-29T07:37:21;14.70;63.70
74511;DHT22;62991;50.040;18.400;2022-09-29T07:40:22;14.70;63.70
74511;DHT22;62991;50.040;18.400;2022-09-29T07:43:23;14.80;63.70
74511;DHT22;62991;50.040;18.400;2022-09-29T07:46:24;14.80;63.60
74511;DHT22;62991;50.040;18.400;2022-09-29T07:49:26;14.90;63.60
74511;DHT22;62991;50.040;18.400;2022-09-29T07:52:26;14.90;63.40
74511;DHT22;62991;50.040;18.400;2022-09-29T07:55:29;14.90;63.20
74511;DHT22;62991;50.040;18.400;2022-09-29T07:58:30;14.90;62.90
74511;DHT22;62991;50.040;18.400;2022-09-29T08:01:32;14.90;62.80
74511;DHT22;62991;50.040;18.400;2022-09-29T08:04:33;15.00;62.70
74511;DHT22;62991;50.040;18.400;2022-09-29T08:07:33;15.00;62.50
74511;DHT22;62991;50.040;18.400;2022-09-29T08:10:34;15.00;62.40
74511;DHT22;62991;50.040;18.400;2022-09-29T08:13:35;15.00;62.30
74511;DHT22;62991;50.040;18.400;2022-09-29T08:16:37;15.00;62.20
74511;DHT22;62991;50.040;18.400;2022-09-29T08:19:38;15.00;62.20
74511;DHT22;62991;50.040;18.400;2022-09-29T08:22:39;15.00;62.20
74511;DHT22;62991;50.040;18.400;2022-09-29T08:25:40;15.00;62.20
74511;DHT22;62991;50.040;18.400;2022-09-29T08:28:43;15.10;62.20
74511;DHT22;62991;50.040;18.400;2022-09-29T08:31:44;15.10;62.10
74511;DHT22;62991;50.040;18.400;2022-09-29T08:34:45;15.10;62.10
74511;DHT22;62991;50.040;18.400;2022-09-29T08:37:46;15.20;62.00
74511;DHT22;62991;50.040;18.400;2022-09-29T08:40:48;15.20;61.90
74511;DHT22;62991;50.040;18.400;2022-09-29T08:43:52;15.20;61.80
74511;DHT22;62991;50.040;18.400;2022-09-29T08:47:02;15.20;61.70
74511;DHT22;62991;50.040;18.400;2022-09-29T08:50:10;15.30;61.60
74511;DHT22;62991;50.040;18.400;2022-09-29T08:53:14;15.30;61.50
74511;DHT22;62991;50.040;18.400;2022-09-29T08:56:17;15.40;61.40
74511;DHT22;62991;50.040;18.400;2022-09-29T08:59:18;15.40;61.30
74511;DHT22;62991;50.040;18.400;2022-09-29T09:15:31;15.90;60.60
74511;DHT22;62991;50.040;18.400;2022-09-29T09:19:22;16.00;60.50
74511;DHT22;62991;50.040;18.400;2022-09-29T09:26:02;16.20;60.10
74511;DHT22;62991;50.040;18.400;2022-09-29T09:29:10;16.30;60.00
74511;DHT22;62991;50.040;18.400;2022-09-29T09:32:19;16.40;59.80
74511;DHT22;62991;50.040;18.400;2022-09-29T09:35:27;16.50;59.50
74511;DHT22;62991;50.040;18.400;2022-09-29T09:41:46;16.60;59.00
74511;DHT22;62991;50.040;18.400;2022-09-29T09:44:53;16.70;59.00
74511;DHT22;62991;50.040;18.400;2022-09-29T09:48:15;16.70;58.80
74511;DHT22;62991;50.040;18.400;2022-09-29T09:54:54;16.90;58.40
74511;DHT22;62991;50.040;18.400;2022-09-29T09:58:22;17.00;58.40
74511;DHT22;62991;50.040;18.400;2022-09-29T10:01:26;17.10;57.80
74511;DHT22;62991;50.040;18.400;2022-09-29T10:04:27;17.20;57.70
74511;DHT22;62991;50.040;18.400;2022-09-29T10:07:30;17.30;57.50
74511;DHT22;62991;50.040;18.400;2022-09-29T10:10:30;17.30;57.30
74511;DHT22;62991;50.040;18.400;2022-09-29T10:13:31;17.40;57.10
74511;DHT22;62991;50.040;18.400;2022-09-29T10:16:45;17.50;56.70
74511;DHT22;62991;50.040;18.400;2022-09-29T10:22:53;17.60;56.00
74511;DHT22;62991;50.040;18.400;2022-09-29T10:26:15;17.60;55.80
74511;DHT22;62991;50.040;18.400;2022-09-29T10:29:39;17.60;55.10
74511;DHT22;62991;50.040;18.400;2022-09-29T10:32:43;17.50;55.20
74511;DHT22;62991;50.040;18.400;2022-09-29T10:35:46;17.50;55.50
74511;DHT22;62991;50.040;18.400;2022-09-29T10:38:50;17.50;55.70
74511;DHT22;62991;50.040;18.400;2022-09-29T10:41:51;17.60;55.60
74511;DHT22;62991;50.040;18.400;2022-09-29T10:45:01;17.60;55.30
74511;DHT22;62991;50.040;18.400;2022-09-29T10:48:10;17.60;54.90
74511;DHT22;62991;50.040;18.400;2022-09-29T10:51:19;17.50;54.90
74511;DHT22;62991;50.040;18.400;2022-09-29T10:54:24;17.40;54.50
74511;DHT22;62991;50.040;18.400;2022-09-29T10:57:27;17.30;54.40
74511;DHT22;62991;50.040;18.400;2022-09-29T11:00:37;17.30;54.30
74511;DHT22;62991;50.040;18.400;2022-09-29T11:03:50;17.30;54.10
74511;DHT22;62991;50.040;18.400;2022-09-29T11:06:52;17.30;53.90
74511;DHT22;62991;50.040;18.400;2022-09-29T11:09:53;17.40;53.80
74511;DHT22;62991;50.040;18.400;2022-09-29T11:12:55;17.40;53.50
74511;DHT22;62991;50.040;18.400;2022-09-29T11:19:26;17.50;53.20
74511;DHT22;62991;50.040;18.400;2022-09-29T11:29:20;17.90;52.50
74511;DHT22;62991;50.040;18.400;2022-09-29T11:35:55;18.10;52.40
74511;DHT22;62991;50.040;18.400;2022-09-29T11:39:35;18.10;52.20
74511;DHT22;62991;50.040;18.400;2022-09-29T11:46:40;18.30;52.20
74511;DHT22;62991;50.040;18.400;2022-09-29T11:54:09;18.60;51.90
74511;DHT22;62991;50.040;18.400;2022-09-29T12:17:11;19.70;50.50
74511;DHT22;62991;50.040;18.400;2022-09-29T12:20:33;19.90;50.30
74511;DHT22;62991;50.040;18.400;2022-09-29T12:23:37;20.20;50.20
74511;DHT22;62991;50.040;18.400;2022-09-29T12:26:39;20.50;50.20
74511;DHT22;62991;50.040;18.400;2022-09-29T12:29:43;20.80;49.90
74511;DHT22;62991;50.040;18.400;2022-09-29T12:32:53;21.10;49.70
74511;DHT22;62991;50.040;18.400;2022-09-29T12:46:39;22.20;47.50
74511;DHT22;62991;50.040;18.400;2022-09-29T12:53:27;22.20;46.70
74511;DHT22;62991;50.040;18.400;2022-09-29T12:56:37;22.20;46.60
74511;DHT22;62991;50.040;18.400;2022-09-29T13:03:05;22.70;46.50
74511;DHT22;62991;50.040;18.400;2022-09-29T13:06:26;22.90;46.00
74511;DHT22;62991;50.040;18.400;2022-09-29T13:12:58;23.30;45.60
74511;DHT22;62991;50.040;18.400;2022-09-29T13:26:29;25.60;44.70
74511;DHT22;62991;50.040;18.400;2022-09-29T13:29:43;26.90;43.90
74511;DHT22;62991;50.040;18.400;2022-09-29T13:35:54;29.30;42.70
74511;DHT22;62991;50.040;18.400;2022-09-29T13:38:57;30.40;41.90
74511;DHT22;62991;50.040;18.400;2022-09-29T13:42:36;31.30;41.00
74511;DHT22;62991;50.040;18.400;2022-09-29T13:45:39;32.30;39.90
74511;DHT22;62991;50.040;18.400;2022-09-29T13:48:50;33.00;39.60
74511;DHT22;62991;50.040;18.400;2022-09-29T13:52:27;33.60;38.40
74511;DHT22;62991;50.040;18.400;2022-09-29T14:01:52;33.90;36.70
74511;DHT22;62991;50.040;18.400;2022-09-29T14:04:54;33.40;36.10
74511;DHT22;62991;50.040;18.400;2022-09-29T14:11:14;31.80;35.90
74511;DHT22;62991;50.040;18.400;2022-09-29T14:20:28;29.30;36.50
74511;DHT22;62991;50.040;18.400;2022-09-29T14:26:50;28.20;36.90
74511;DHT22;62991;50.040;18.400;2022-09-29T14:33:18;27.10;37.60
74511;DHT22;62991;50.040;18.400;2022-09-29T14:36:23;26.70;38.00
74511;DHT22;62991;50.040;18.400;2022-09-29T14:39:25;26.20;38.30
74511;DHT22;62991;50.040;18.400;2022-09-29T14:42:27;25.80;38.60
74511;DHT22;62991;50.040;18.400;2022-09-29T14:45:37;25.50;38.90
74511;DHT22;62991;50.040;18.400;2022-09-29T14:56:01;24.60;39.40
74511;DHT22;62991;50.040;18.400;2022-09-29T14:59:15;24.30;39.60
74511;DHT22;62991;50.040;18.400;2022-09-29T15:02:21;24.00;39.90
74511;DHT22;62991;50.040;18.400;2022-09-29T15:05:25;23.80;40.10
74511;DHT22;62991;50.040;18.400;2022-09-29T15:08:29;23.50;40.30
74511;DHT22;62991;50.040;18.400;2022-09-29T15:11:36;23.30;40.50
74511;DHT22;62991;50.040;18.400;2022-09-29T15:14:42;23.00;40.80
74511;DHT22;62991;50.040;18.400;2022-09-29T15:17:47;22.80;41.00
74511;DHT22;62991;50.040;18.400;2022-09-29T15:27:14;22.10;42.00
74511;DHT22;62991;50.040;18.400;2022-09-29T15:30:17;22.00;42.10
74511;DHT22;62991;50.040;18.400;2022-09-29T15:33:27;22.00;42.20
74511;DHT22;62991;50.040;18.400;2022-09-29T15:36:34;21.90;42.30
74511;DHT22;62991;50.040;18.400;2022-09-29T15:42:38;21.90;42.50
74511;DHT22;62991;50.040;18.400;2022-09-29T15:45:52;21.80;42.60
74511;DHT22;62991;50.040;18.400;2022-09-29T15:49:13;21.80;42.60
74511;DHT22;62991;50.040;18.400;2022-09-29T15:52:15;21.80;42.70
74511;DHT22;62991;50.040;18.400;2022-09-29T15:55:21;21.70;42.80
74511;DHT22;62991;50.040;18.400;2022-09-29T16:01:25;21.50;43.00
74511;DHT22;62991;50.040;18.400;2022-09-29T16:04:26;21.40;43.10
74511;DHT22;62991;50.040;18.400;2022-09-29T16:07:33;21.30;43.30
74511;DHT22;62991;50.040;18.400;2022-09-29T16:10:52;21.20;43.50
74511;DHT22;62991;50.040;18.400;2022-09-29T16:14:26;21.00;43.70
74511;DHT22;62991;50.040;18.400;2022-09-29T16:17:29;20.80;43.90
74511;DHT22;62991;50.040;18.400;2022-09-29T16:20:32;20.60;44.10
74511;DHT22;62991;50.040;18.400;2022-09-29T16:24:07;20.40;44.30
74511;DHT22;62991;50.040;18.400;2022-09-29T16:27:37;20.20;44.50
74511;DHT22;62991;50.040;18.400;2022-09-29T16:30:39;20.00;44.80
74511;DHT22;62991;50.040;18.400;2022-09-29T16:33:44;19.80;44.90
74511;DHT22;62991;50.040;18.400;2022-09-29T16:37:02;19.60;45.20
74511;DHT22;62991;50.040;18.400;2022-09-29T16:40:04;19.50;45.40
74511;DHT22;62991;50.040;18.400;2022-09-29T16:43:29;19.30;45.50
74511;DHT22;62991;50.040;18.400;2022-09-29T16:46:30;19.20;45.80
74511;DHT22;62991;50.040;18.400;2022-09-29T16:49:36;19.00;45.90
74511;DHT22;62991;50.040;18.400;2022-09-29T16:55:54;18.70;46.30
74511;DHT22;62991;50.040;18.400;2022-09-29T16:59:07;18.60;46.50
74511;DHT22;62991;50.040;18.400;2022-09-29T17:02:11;18.50;46.70
74511;DHT22;62991;50.040;18.400;2022-09-29T17:05:12;18.40;46.80
74511;DHT22;62991;50.040;18.400;2022-09-29T17:08:23;18.30;47.00
74511;DHT22;62991;50.040;18.400;2022-09-29T17:11:25;18.20;47.10
74511;DHT22;62991;50.040;18.400;2022-09-29T17:14:27;18.10;47.20
74511;DHT22;62991;50.040;18.400;2022-09-29T17:17:29;18.00;47.40
74511;DHT22;62991;50.040;18.400;2022-09-29T17:20:30;17.90;47.50
74511;DHT22;62991;50.040;18.400;2022-09-29T17:23:31;17.90;47.70
74511;DHT22;62991;50.040;18.400;2022-09-29T17:29:54;17.70;48.00
74511;DHT22;62991;50.040;18.400;2022-09-29T17:32:55;17.60;48.10
74511;DHT22;62991;50.040;18.400;2022-09-29T17:35:57;17.60;48.20
74511;DHT22;62991;50.040;18.400;2022-09-29T17:38:58;17.50;48.30
74511;DHT22;62991;50.040;18.400;2022-09-29T17:41:58;17.50;48.40
74511;DHT22;62991;50.040;18.400;2022-09-29T17:44:59;17.40;48.50
74511;DHT22;62991;50.040;18.400;2022-09-29T17:48:02;17.40;48.70
74511;DHT22;62991;50.040;18.400;2022-09-29T17:51:02;17.40;48.80
74511;DHT22;62991;50.040;18.400;2022-09-29T17:54:05;17.30;48.80
74511;DHT22;62991;50.040;18.400;2022-09-29T17:57:06;17.30;48.90
74511;DHT22;62991;50.040;18.400;2022-09-29T18:00:31;17.30;49.00
74511;DHT22;62991;50.040;18.400;2022-09-29T18:03:32;17.30;49.00
74511;DHT22;62991;50.040;18.400;2022-09-29T18:06:34;17.20;49.10
74511;DHT22;62991;50.040;18.400;2022-09-29T18:09:39;17.20;49.30
74511;DHT22;62991;50.040;18.400;2022-09-29T18:12:40;17.10;49.40
74511;DHT22;62991;50.040;18.400;2022-09-29T18:15:41;17.10;49.50
74511;DHT22;62991;50.040;18.400;2022-09-29T18:18:43;17.00;49.60
74511;DHT22;62991;50.040;18.400;2022-09-29T18:21:47;17.00;49.80
74511;DHT22;62991;50.040;18.400;2022-09-29T18:24:48;17.00;49.90
74511;DHT22;62991;50.040;18.400;2022-09-29T18:27:49;17.00;49.90
74511;DHT22;62991;50.040;18.400;2022-09-29T18:31:06;16.90;50.00
74511;DHT22;62991;50.040;18.400;2022-09-29T18:34:16;16.90;50.20
74511;DHT22;62991;50.040;18.400;2022-09-29T18:37:17;16.90;50.30
74511;DHT22;62991;50.040;18.400;2022-09-29T18:40:18;16.80;50.30
74511;DHT22;62991;50.040;18.400;2022-09-29T18:43:22;16.80;50.50
74511;DHT22;62991;50.040;18.400;2022-09-29T18:46:25;16.80;50.60
74511;DHT22;62991;50.040;18.400;2022-09-29T18:49:26;16.80;50.70
74511;DHT22;62991;50.040;18.400;2022-09-29T18:52:26;16.80;50.90
74511;DHT22;62991;50.040;18.400;2022-09-29T18:55:29;16.80;50.90
74511;DHT22;62991;50.040;18.400;2022-09-29T18:58:30;16.80;51.00
74511;DHT22;62991;50.040;18.400;2022-09-29T19:01:31;16.70;51.10
74511;DHT22;62991;50.040;18.400;2022-09-29T19:04:32;16.70;51.20
74511;DHT22;62991;50.040;18.400;2022-09-29T19:07:33;16.70;51.30
74511;DHT22;62991;50.040;18.400;2022-09-29T19:10:35;16.60;51.40
74511;DHT22;62991;50.040;18.400;2022-09-29T19:13:35;16.60;51.50
74511;DHT22;62991;50.040;18.400;2022-09-29T19:16:38;16.60;51.60
74511;DHT22;62991;50.040;18.400;2022-09-29T19:19:38;16.60;51.70
74511;DHT22;62991;50.040;18.400;2022-09-29T19:22:40;16.50;51.90
74511;DHT22;62991;50.040;18.400;2022-09-29T19:25:44;16.50;52.00
74511;DHT22;62991;50.040;18.400;2022-09-29T19:28:45;16.50;52.10
74511;DHT22;62991;50.040;18.400;2022-09-29T19:31:47;16.40;52.20
74511;DHT22;62991;50.040;18.400;2022-09-29T19:34:49;16.40;52.30
74511;DHT22;62991;50.040;18.400;2022-09-29T19:37:50;16.30;52.40
74511;DHT22;62991;50.040;18.400;2022-09-29T19:40:51;16.30;52.50
74511;DHT22;62991;50.040;18.400;2022-09-29T19:43:52;16.30;52.60
74511;DHT22;62991;50.040;18.400;2022-09-29T19:46:53;16.20;52.70
74511;DHT22;62991;50.040;18.400;2022-09-29T19:49:54;16.20;52.80
74511;DHT22;62991;50.040;18.400;2022-09-29T19:53:15;16.10;52.80
74511;DHT22;62991;50.040;18.400;2022-09-29T19:56:16;16.10;53.00
74511;DHT22;62991;50.040;18.400;2022-09-29T19:59:19;16.00;53.00
74511;DHT22;62991;50.040;18.400;2022-09-29T20:02:20;16.00;53.00
74511;DHT22;62991;50.040;18.400;2022-09-29T20:05:21;16.00;53.10
74511;DHT22;62991;50.040;18.400;2022-09-29T20:08:22;15.90;53.20
74511;DHT22;62991;50.040;18.400;2022-09-29T20:11:22;15.90;53.30
74511;DHT22;62991;50.040;18.400;2022-09-29T20:14:24;15.80;53.40
74511;DHT22;62991;50.040;18.400;2022-09-29T20:17:26;15.80;53.40
74511;DHT22;62991;50.040;18.400;2022-09-29T20:20:26;15.70;53.50
74511;DHT22;62991;50.040;18.400;2022-09-29T20:23:28;15.70;53.60
74511;DHT22;62991;50.040;18.400;2022-09-29T20:26:28;15.70;53.60
74511;DHT22;62991;50.040;18.400;2022-09-29T20:29:29;15.70;53.70
74511;DHT22;62991;50.040;18.400;2022-09-29T20:32:31;15.60;53.80
74511;DHT22;62991;50.040;18.400;2022-09-29T20:35:32;15.60;53.80
74511;DHT22;62991;50.040;18.400;2022-09-29T20:38:40;15.50;54.00
74511;DHT22;62991;50.040;18.400;2022-09-29T20:41:41;15.50;54.10
74511;DHT22;62991;50.040;18.400;2022-09-29T20:44:43;15.50;54.20
74511;DHT22;62991;50.040;18.400;2022-09-29T20:47:43;15.50;54.20
74511;DHT22;62991;50.040;18.400;2022-09-29T20:50:44;15.40;54.30
74511;DHT22;62991;50.040;18.400;2022-09-29T20:53:54;15.40;54.30
74511;DHT22;62991;50.040;18.400;2022-09-29T20:56:55;15.40;54.50
74511;DHT22;62991;50.040;18.400;2022-09-29T20:59:56;15.40;54.50
74511;DHT22;62991;50.040;18.400;2022-09-29T21:02:56;15.30;54.60
74511;DHT22;62991;50.040;18.400;2022-09-29T21:05:57;15.30;54.60
74511;DHT22;62991;50.040;18.400;2022-09-29T21:08:58;15.30;54.70
74511;DHT22;62991;50.040;18.400;2022-09-29T21:11:59;15.20;54.80
74511;DHT22;62991;50.040;18.400;2022-09-29T21:15:02;15.20;54.90
74511;DHT22;62991;50.040;18.400;2022-09-29T21:18:03;15.20;54.90
74511;DHT22;62991;50.040;18.400;2022-09-29T21:21:06;15.20;55.00
74511;DHT22;62991;50.040;18.400;2022-09-29T21:24:08;15.20;55.00
74511;DHT22;62991;50.040;18.400;2022-09-29T21:27:09;15.20;55.10
74511;DHT22;62991;50.040;18.400;2022-09-29T21:30:10;15.10;55.10
74511;DHT22;62991;50.040;18.400;2022-09-29T21:33:11;15.10;55.20
74511;DHT22;62991;50.040;18.400;2022-09-29T21:36:13;15.10;55.20
74511;DHT22;62991;50.040;18.400;2022-09-29T21:39:15;15.10;55.30
74511;DHT22;62991;50.040;18.400;2022-09-29T21:42:16;15.10;55.40
74511;DHT22;62991;50.040;18.400;2022-09-29T21:45:17;15.10;55.40
74511;DHT22;62991;50.040;18.400;2022-09-29T21:48:17;15.10;55.50
74511;DHT22;62991;50.040;18.400;2022-09-29T21:51:44;15.10;55.50
74511;DHT22;62991;50.040;18.400;2022-09-29T21:54:44;15.10;55.60
74511;DHT22;62991;50.040;18.400;2022-09-29T21:57:44;15.10;55.60
74511;DHT22;62991;50.040;18.400;2022-09-29T22:00:46;15.00;55.70
74511;DHT22;62991;50.040;18.400;2022-09-29T22:03:48;15.00;55.70
74511;DHT22;62991;50.040;18.400;2022-09-29T22:06:49;15.00;55.80
74511;DHT22;62991;50.040;18.400;2022-09-29T22:09:50;15.00;55.80